Time;durP1;ratioP1;P1;durP2;ratioP2;P2;SDS_P1;SDS_P2;PMS_P1;PMS_P2;Temp;Humidity;BMP_temperature;BMP_pressure;BME280_temperature;BME280_humidity;BME280_pressure;Samples;Min_cycle;Max_cycle;Signal;HPM_P1;HPM_P2
2021/03/18 00:00:56;;;;;;;9.37;6.57;;;-0.70;99.90;;;;;;5081426;28;20430;-85
2021/03/18 00:03:26;;;;;;;11.00;7.07;;;-0.70;99.90;;;;;;5082474;28;20628;-85
2021/03/18 00:05:53;;;;;;;7.80;6.37;;;-0.70;99.90;;;;;;5082351;28;20800;-84
2021/03/18 00:08:19;;;;;;;10.10;6.40;;;-0.70;99.90;;;;;;5082281;28;20438;-85
2021/03/18 00:10:46;;;;;;;7.50;6.30;;;-0.70;99.90;;;;;;5100715;28;20966;-85
2021/03/18 00:13:12;;;;;;;10.37;6.40;;;-0.70;99.90;;;;;;5082046;28;20498;-84
2021/03/18 00:15:39;;;;;;;9.23;6.50;;;-0.70;99.90;;;;;;5100566;28;20826;-85
2021/03/18 00:18:07;;;;;;;10.27;5.97;;;-0.60;99.90;;;;;;5082351;28;20193;-85
2021/03/18 00:20:33;;;;;;;8.03;6.20;;;-0.70;99.90;;;;;;5082788;28;20482;-85
2021/03/18 00:22:59;;;;;;;8.13;5.97;;;-0.70;99.90;;;;;;5082635;28;20442;-85
2021/03/18 00:25:29;;;;;;;8.50;6.63;;;-0.70;99.90;;;;;;5099600;28;20433;-85
2021/03/18 00:27:55;;;;;;;7.77;6.67;;;-0.70;99.90;;;;;;5082388;28;21032;-85
2021/03/18 00:30:21;;;;;;;11.37;7.07;;;-0.80;99.90;;;;;;5081988;28;20425;-85
2021/03/18 00:32:49;;;;;;;8.30;6.20;;;-0.80;99.90;;;;;;5082769;28;20176;-85
2021/03/18 00:35:15;;;;;;;12.17;7.57;;;-0.80;99.90;;;;;;5083261;28;20472;-85
2021/03/18 00:37:43;;;;;;;8.60;7.57;;;-0.80;99.90;;;;;;5100432;28;20488;-84
2021/03/18 00:40:31;;;;;;;8.17;6.30;;;-0.80;99.90;;;;;;5082367;28;20406;-85
2021/03/18 00:43:09;;;;;;;9.00;6.87;;;-0.90;99.90;;;;;;5081621;28;20421;-85
2021/03/18 00:45:39;;;;;;;8.17;6.47;;;-0.90;99.90;;;;;;5082656;28;20476;-85
2021/03/18 00:48:06;;;;;;;10.93;6.50;;;-0.90;99.90;;;;;;5082741;28;20410;-85
2021/03/18 00:50:41;;;;;;;10.23;7.10;;;-0.90;99.90;;;;;;5082544;28;20519;-85
2021/03/18 00:53:09;;;;;;;11.00;7.23;;;-0.90;99.90;;;;;;5082047;28;20413;-85
2021/03/18 00:55:35;;;;;;;8.67;6.83;;;-1.00;99.90;;;;;;5082615;28;20798;-85
2021/03/18 00:58:01;;;;;;;9.93;7.17;;;-1.00;99.90;;;;;;5100850;28;20434;-84
2021/03/18 01:00:28;;;;;;;9.77;7.00;;;-1.00;99.90;;;;;;5082873;28;20407;-85
2021/03/18 01:02:54;;;;;;;10.13;8.03;;;-1.00;99.90;;;;;;5100827;28;20644;-84
2021/03/18 01:05:26;;;;;;;10.87;7.53;;;-0.90;99.90;;;;;;5100980;28;20433;-84
2021/03/18 01:07:52;;;;;;;9.00;7.13;;;-0.90;99.90;;;;;;5082066;28;20777;-84
2021/03/18 01:10:18;;;;;;;9.87;7.80;;;-0.90;99.90;;;;;;5079823;28;20417;-84
2021/03/18 01:12:44;;;;;;;13.63;7.20;;;-0.90;99.90;;;;;;5079314;28;20180;-84
2021/03/18 01:15:11;;;;;;;10.93;7.00;;;-0.90;99.90;;;;;;5079566;28;20489;-84
2021/03/18 01:17:36;;;;;;;9.90;7.17;;;-0.90;99.90;;;;;;5079330;28;20177;-84
2021/03/18 01:20:05;;;;;;;13.20;7.53;;;-0.70;99.90;;;;;;5098704;28;20415;-84
2021/03/18 01:22:30;;;;;;;10.57;7.63;;;-1.00;99.90;;;;;;5080319;28;20586;-84
2021/03/18 01:24:56;;;;;;;9.87;7.17;;;-1.00;99.90;;;;;;5079785;28;20422;-84
2021/03/18 01:27:23;;;;;;;13.63;7.50;;;-1.00;99.90;;;;;;5097986;28;20193;-84
2021/03/18 01:29:51;;;;;;;12.93;7.40;;;-0.90;99.90;;;;;;5079537;28;20317;-84
2021/03/18 01:32:17;;;;;;;9.50;7.57;;;-0.90;99.90;;;;;;5098203;28;20464;-85
2021/03/18 01:34:43;;;;;;;10.57;7.27;;;-1.00;99.90;;;;;;5098414;28;20410;-84
2021/03/18 01:37:09;;;;;;;11.90;8.10;;;-1.00;99.90;;;;;;5097970;28;20433;-84
2021/03/18 01:39:34;;;;;;;15.37;7.97;;;-0.90;99.90;;;;;;5098137;28;20172;-85
2021/03/18 01:42:00;;;;;;;12.97;8.70;;;-1.00;99.90;;;;;;5079533;28;20218;-84
2021/03/18 01:44:26;;;;;;;9.93;7.17;;;-0.90;99.90;;;;;;5080008;28;20273;-84
2021/03/18 01:46:52;;;;;;;12.87;8.20;;;-0.90;99.90;;;;;;5079434;28;20199;-85
2021/03/18 01:49:19;;;;;;;14.07;8.00;;;-1.00;99.90;;;;;;5080243;28;20823;-84
2021/03/18 01:51:45;;;;;;;11.33;8.77;;;-1.00;99.90;;;;;;5080688;28;20724;-85
2021/03/18 01:54:12;;;;;;;13.13;8.43;;;-1.00;99.90;;;;;;5098607;28;20418;-84
2021/03/18 01:56:37;;;;;;;12.77;8.83;;;-1.00;99.90;;;;;;5080170;28;20196;-84
2021/03/18 01:59:03;;;;;;;15.37;9.30;;;-0.90;99.90;;;;;;5079489;28;20413;-84
2021/03/18 02:01:29;;;;;;;12.00;9.23;;;-0.90;99.90;;;;;;5080113;28;20204;-85
2021/03/18 02:03:56;;;;;;;11.37;8.50;;;-0.90;99.90;;;;;;5080163;28;20183;-85
2021/03/18 02:06:22;;;;;;;11.50;9.30;;;-0.80;99.90;;;;;;5098813;28;20245;-84
2021/03/18 02:08:48;;;;;;;12.33;8.43;;;-1.00;99.90;;;;;;5099216;28;20422;-84
2021/03/18 02:11:13;;;;;;;12.43;9.13;;;-0.90;99.90;;;;;;5080979;28;20850;-84
2021/03/18 02:13:39;;;;;;;12.53;8.77;;;-0.90;99.90;;;;;;5080935;28;20681;-84
2021/03/18 02:16:08;;;;;;;12.50;8.87;;;-1.00;99.90;;;;;;5081004;28;20214;-84
2021/03/18 02:18:47;;;;;;;12.57;8.57;;;-1.10;99.90;;;;;;5080926;28;20199;-84
2021/03/18 02:21:37;;;;;;;16.73;9.53;;;-0.90;99.90;;;;;;5081189;28;20421;-84
2021/03/18 02:24:34;;;;;;;17.07;9.47;;;-1.00;99.90;;;;;;5081665;28;20913;-84
2021/03/18 02:27:08;;;;;;;14.13;9.70;;;-1.00;99.90;;;;;;5081375;28;20455;-84
2021/03/18 02:29:52;;;;;;;15.50;8.87;;;-0.90;99.90;;;;;;5100282;28;20779;-85
2021/03/18 02:32:30;;;;;;;13.60;9.50;;;-1.00;99.90;;;;;;5081578;28;20955;-84
2021/03/18 02:35:30;;;;;;;16.63;9.00;;;-0.90;99.90;;;;;;5099990;28;20389;-84
2021/03/18 02:38:34;;;;;;;15.50;9.10;;;-0.90;99.90;;;;;;5082191;28;20416;-85
2021/03/18 02:41:17;;;;;;;12.97;10.00;;;-0.90;99.90;;;;;;5072770;28;20410;-85
2021/03/18 02:43:51;;;;;;;15.20;10.33;;;-0.90;99.90;;;;;;5084009;28;20415;-85
2021/03/18 02:46:19;;;;;;;13.13;9.73;;;-0.80;99.90;;;;;;5084228;28;20433;-84
2021/03/18 02:48:46;;;;;;;12.67;9.00;;;-0.80;99.90;;;;;;5087131;28;20419;-84
2021/03/18 02:51:18;;;;;;;14.53;10.60;;;-0.80;99.90;;;;;;5088633;28;20461;-84
2021/03/18 02:53:46;;;;;;;14.93;9.87;;;-0.90;99.90;;;;;;5096897;28;20389;-84
2021/03/18 02:56:20;;;;;;;15.50;10.67;;;-0.90;99.90;;;;;;5118934;28;20493;-84
2021/03/18 02:58:49;;;;;;;15.00;10.07;;;-0.90;99.90;;;;;;5093964;28;20505;-84
2021/03/18 03:01:15;;;;;;;14.30;9.60;;;-0.90;99.90;;;;;;5083725;28;20433;-84
2021/03/18 03:03:43;;;;;;;14.17;10.13;;;-0.90;99.90;;;;;;5083994;28;20421;-84
2021/03/18 03:06:10;;;;;;;17.40;9.80;;;-0.90;99.90;;;;;;5084356;28;20438;-85
2021/03/18 03:08:38;;;;;;;13.20;9.47;;;-1.00;99.90;;;;;;5083999;28;20874;-84
2021/03/18 03:11:04;;;;;;;11.87;9.43;;;-1.00;99.90;;;;;;5083576;28;20538;-85
2021/03/18 03:13:33;;;;;;;13.67;9.30;;;-1.10;99.90;;;;;;5102680;28;20417;-84
2021/03/18 03:16:06;;;;;;;13.90;9.17;;;-1.00;99.90;;;;;;5100215;28;20821;-84
2021/03/18 03:18:33;;;;;;;14.43;9.63;;;-1.00;99.90;;;;;;5099542;28;20390;-84
2021/03/18 03:21:00;;;;;;;10.00;8.03;;;-1.00;99.90;;;;;;5099816;28;20526;-84
2021/03/18 03:23:28;;;;;;;14.10;9.17;;;-1.00;99.90;;;;;;5081077;28;20926;-84
2021/03/18 03:25:54;;;;;;;15.50;10.23;;;-1.00;99.90;;;;;;5081334;28;20494;-84
2021/03/18 03:28:21;;;;;;;16.33;10.60;;;-0.70;99.90;;;;;;5081211;28;20454;-84
2021/03/18 03:30:47;;;;;;;15.93;10.97;;;-1.00;99.90;;;;;;5081962;28;20488;-84
2021/03/18 03:33:13;;;;;;;16.23;11.47;;;-1.00;99.90;;;;;;5081031;28;20924;-84
2021/03/18 03:35:39;;;;;;;16.63;10.67;;;-0.20;99.90;;;;;;5081563;28;20602;-84
2021/03/18 03:38:05;;;;;;;13.10;9.67;;;-1.00;99.90;;;;;;5098939;28;20180;-84
2021/03/18 03:40:32;;;;;;;13.27;10.50;;;-0.40;99.90;;;;;;5081524;28;20184;-84
2021/03/18 03:42:58;;;;;;;15.17;10.60;;;-0.90;99.90;;;;;;5081812;28;20510;-84
2021/03/18 03:45:25;;;;;;;16.93;10.80;;;-1.00;99.90;;;;;;5081478;28;20541;-84
2021/03/18 03:47:50;;;;;;;14.60;10.23;;;-1.00;99.90;;;;;;5099582;28;20286;-84
2021/03/18 03:50:23;;;;;;;17.60;12.43;;;-1.00;99.90;;;;;;5080818;28;20445;-84
2021/03/18 03:52:58;;;;;;;17.83;12.03;;;-1.00;99.90;;;;;;5081005;28;20183;-84
2021/03/18 03:55:42;;;;;;;16.17;11.27;;;-1.00;99.90;;;;;;5081161;28;20436;-84
2021/03/18 03:58:41;;;;;;;19.70;12.93;;;-1.00;99.90;;;;;;5099054;28;20420;-84
2021/03/18 04:01:17;;;;;;;23.93;12.87;;;-1.10;99.90;;;;;;5081712;28;20418;-84
2021/03/18 04:03:44;;;;;;;16.20;11.13;;;-1.20;99.90;;;;;;5099718;28;20480;-84
2021/03/18 04:06:10;;;;;;;19.80;12.10;;;-1.10;99.90;;;;;;5081815;28;20449;-84
2021/03/18 04:08:39;;;;;;;17.60;10.83;;;-1.20;99.90;;;;;;5081174;28;20834;-84
2021/03/18 04:11:06;;;;;;;20.70;10.73;;;-1.30;99.90;;;;;;5081625;28;20458;-84
2021/03/18 04:13:33;;;;;;;21.47;12.03;;;-0.70;99.90;;;;;;5081518;28;20418;-84
2021/03/18 04:16:01;;;;;;;16.67;10.37;;;-0.50;99.90;;;;;;5081293;28;20534;-84
2021/03/18 04:18:36;;;;;;;16.97;10.43;;;-1.30;99.90;;;;;;5082001;28;20407;-84
2021/03/18 04:21:05;;;;;;;16.80;9.97;;;-1.30;99.90;;;;;;5081695;28;20417;-84
2021/03/18 04:23:31;;;;;;;14.77;9.83;;;-1.20;99.90;;;;;;5081661;28;20440;-84
2021/03/18 04:25:58;;;;;;;17.33;9.97;;;-1.30;99.90;;;;;;5081665;28;20932;-84
2021/03/18 04:28:28;;;;;;;19.30;10.20;;;0.30;99.90;;;;;;5100939;28;20776;-84
2021/03/18 04:30:54;;;;;;;20.23;11.43;;;-1.30;99.90;;;;;;5100317;28;20811;-84
2021/03/18 04:33:21;;;;;;;21.43;11.83;;;-1.30;99.90;;;;;;5081401;28;20832;-84
2021/03/18 04:35:47;;;;;;;19.23;11.03;;;-1.30;99.90;;;;;;5100016;28;20430;-84
2021/03/18 04:38:14;;;;;;;19.03;10.27;;;-1.30;99.90;;;;;;5081594;28;20421;-84
2021/03/18 04:40:40;;;;;;;17.90;10.70;;;-1.40;99.90;;;;;;5081699;28;20429;-84
2021/03/18 04:43:06;;;;;;;18.63;9.77;;;-1.40;99.90;;;;;;5099669;28;20422;-84
2021/03/18 04:45:32;;;;;;;21.47;12.13;;;-1.40;99.90;;;;;;5081835;28;20533;-84
2021/03/18 04:48:01;;;;;;;18.13;10.07;;;-1.30;99.90;;;;;;5082349;28;20422;-84
2021/03/18 04:50:29;;;;;;;19.00;10.67;;;-1.40;99.90;;;;;;5118549;28;20416;-83
2021/03/18 04:52:55;;;;;;;19.43;11.00;;;-1.40;99.90;;;;;;5096684;28;20534;-84
2021/03/18 04:55:21;;;;;;;18.50;10.30;;;-1.30;99.90;;;;;;5107639;28;20444;-84
2021/03/18 04:58:09;;;;;;;20.47;11.70;;;-1.30;99.90;;;;;;5106653;28;20176;-84
2021/03/18 05:00:35;;;;;;;18.67;10.60;;;-1.30;99.90;;;;;;5106811;28;20414;-84
2021/03/18 05:03:03;;;;;;;23.50;12.17;;;-1.30;99.90;;;;;;5107493;28;20422;-84
2021/03/18 05:05:30;;;;;;;20.70;11.57;;;-1.30;99.90;;;;;;5087968;28;20448;-84
2021/03/18 05:07:57;;;;;;;24.43;12.93;;;-1.30;99.90;;;;;;5085184;28;20489;-84
2021/03/18 05:10:26;;;;;;;24.47;13.13;;;-1.40;99.90;;;;;;5101464;28;20531;-84
2021/03/18 05:12:54;;;;;;;19.73;11.13;;;-1.30;99.90;;;;;;5103120;28;20406;-84
2021/03/18 05:15:21;;;;;;;17.53;10.40;;;-1.30;99.90;;;;;;5083299;28;20439;-84
2021/03/18 05:17:51;;;;;;;17.83;10.60;;;-1.30;99.90;;;;;;5083832;28;20512;-84
2021/03/18 05:20:22;;;;;;;20.63;11.80;;;-1.20;99.90;;;;;;5083619;28;20455;-84
2021/03/18 05:22:49;;;;;;;15.53;9.63;;;-1.30;99.90;;;;;;5083154;28;20415;-84
2021/03/18 05:25:18;;;;;;;20.10;10.70;;;-1.30;99.90;;;;;;5082956;28;20477;-83
2021/03/18 05:27:44;;;;;;;22.67;11.77;;;-1.30;99.90;;;;;;5083132;28;20477;-83
2021/03/18 05:30:12;;;;;;;17.53;11.03;;;-1.30;99.90;;;;;;5101176;28;20409;-84
2021/03/18 05:32:38;;;;;;;22.47;11.57;;;-1.30;99.90;;;;;;5082873;28;20348;-83
2021/03/18 05:35:06;;;;;;;20.03;11.83;;;-1.30;99.90;;;;;;5083533;28;20478;-84
2021/03/18 05:37:32;;;;;;;20.37;11.77;;;-1.30;99.90;;;;;;5101616;28;20417;-84
2021/03/18 05:40:02;;;;;;;24.03;12.03;;;-1.30;99.90;;;;;;5082369;28;20405;-84
2021/03/18 05:42:28;;;;;;;18.03;10.80;;;-1.20;99.90;;;;;;5083045;28;20297;-84
2021/03/18 05:44:53;;;;;;;19.00;12.47;;;-1.20;99.90;;;;;;5088232;28;20419;-84
2021/03/18 05:47:19;;;;;;;20.77;12.43;;;-1.30;99.90;;;;;;5116324;28;20165;-85
2021/03/18 05:49:45;;;;;;;23.50;11.93;;;-1.20;99.90;;;;;;5101219;28;20167;-84
2021/03/18 05:52:12;;;;;;;18.80;10.33;;;-1.10;99.90;;;;;;5106665;28;20259;-84
2021/03/18 05:54:46;;;;;;;18.80;10.07;;;-1.30;99.90;;;;;;5103986;28;20186;-85
2021/03/18 05:57:12;;;;;;;17.70;9.63;;;-1.40;99.90;;;;;;5085719;28;20438;-82
2021/03/18 05:59:42;;;;;;;18.50;9.80;;;-1.40;99.90;;;;;;5086796;28;20463;-82
2021/03/18 06:02:09;;;;;;;16.33;10.77;;;-1.40;99.90;;;;;;5104862;28;20417;-82
2021/03/18 06:04:35;;;;;;;20.07;10.77;;;-1.40;99.90;;;;;;5087238;28;20464;-82
2021/03/18 06:07:01;;;;;;;14.73;10.17;;;-1.30;99.90;;;;;;5086608;28;20499;-82
2021/03/18 06:09:27;;;;;;;20.00;11.13;;;-1.30;99.90;;;;;;5086814;28;20425;-82
2021/03/18 06:11:53;;;;;;;17.20;11.10;;;-1.20;99.90;;;;;;5086764;28;20543;-77
2021/03/18 06:14:19;;;;;;;19.83;11.17;;;-1.10;99.90;;;;;;5105445;28;20211;-82
2021/03/18 06:16:48;;;;;;;20.90;11.13;;;-1.10;99.90;;;;;;5085980;28;20808;-82
2021/03/18 06:19:15;;;;;;;20.10;10.77;;;-1.00;99.90;;;;;;5087293;28;20183;-82
2021/03/18 06:21:55;;;;;;;17.77;10.97;;;-1.00;99.90;;;;;;5088459;28;20501;-82
2021/03/18 06:24:23;;;;;;;19.20;10.73;;;-0.90;99.90;;;;;;5108647;28;20452;-82
2021/03/18 06:26:49;;;;;;;20.30;11.43;;;-0.90;99.90;;;;;;5110531;28;20941;-82
2021/03/18 06:29:38;;;;;;;23.10;11.87;;;-0.90;99.90;;;;;;5110038;28;20449;-81
2021/03/18 06:32:13;;;;;;;20.80;11.17;;;-0.90;99.90;;;;;;5089282;28;20485;-82
2021/03/18 06:34:43;;;;;;;18.17;11.00;;;-0.90;99.90;;;;;;5067626;28;20417;-82
2021/03/18 06:37:36;;;;;;;17.97;11.67;;;-0.80;99.90;;;;;;5067553;28;20577;-82
2021/03/18 06:40:13;;;;;;;22.00;12.17;;;-1.00;99.90;;;;;;5066030;28;20947;-82
2021/03/18 06:42:59;;;;;;;19.00;11.47;;;-1.00;99.90;;;;;;5066015;28;20425;-81
2021/03/18 06:45:41;;;;;;;21.30;11.73;;;-0.90;99.90;;;;;;5066189;28;20435;-82
2021/03/18 06:48:15;;;;;;;24.20;11.53;;;-1.00;99.90;;;;;;5065266;28;20450;-81
2021/03/18 06:50:48;;;;;;;20.40;12.33;;;-1.00;99.90;;;;;;5065877;28;20411;-82
2021/03/18 06:53:30;;;;;;;24.13;12.37;;;-1.10;99.90;;;;;;5065487;28;20411;-81
2021/03/18 06:55:56;;;;;;;19.50;11.60;;;-1.00;99.90;;;;;;5084139;28;20935;-82
2021/03/18 06:58:27;;;;;;;24.20;13.00;;;-1.00;99.90;;;;;;5083046;28;20411;-82
2021/03/18 07:00:59;;;;;;;21.40;13.13;;;-1.00;99.90;;;;;;5065448;28;20407;-81
2021/03/18 07:03:28;;;;;;;22.70;12.77;;;-0.90;99.90;;;;;;5065590;28;20428;-82
2021/03/18 07:05:54;;;;;;;25.27;13.23;;;-0.80;99.90;;;;;;5064714;28;20443;-82
2021/03/18 07:08:28;;;;;;;22.47;14.07;;;-0.60;99.90;;;;;;5082950;28;20437;-82
2021/03/18 07:10:54;;;;;;;28.03;14.77;;;-0.60;99.90;;;;;;5082930;28;20466;-82
2021/03/18 07:13:33;;;;;;;27.10;13.93;;;-0.50;99.90;;;;;;5083749;28;20434;-82
2021/03/18 07:15:59;;;;;;;23.50;13.87;;;-0.50;99.90;;;;;;5066261;28;20438;-82
2021/03/18 07:18:26;;;;;;;28.00;15.30;;;-0.40;99.90;;;;;;5084813;28;20498;-82
2021/03/18 07:21:03;;;;;;;20.03;12.33;;;-0.50;99.90;;;;;;5065891;28;20521;-82
2021/03/18 07:23:34;;;;;;;18.93;11.87;;;-0.40;99.90;;;;;;5065732;28;20464;-81
2021/03/18 07:26:00;;;;;;;17.40;11.60;;;-0.40;99.90;;;;;;5065752;28;20467;-82
2021/03/18 07:28:26;;;;;;;18.73;11.87;;;-0.20;99.90;;;;;;5083689;28;20407;-82
2021/03/18 07:30:52;;;;;;;23.00;13.43;;;-0.10;99.90;;;;;;5065409;28;20461;-82
2021/03/18 07:33:19;;;;;;;23.20;12.90;;;-0.10;99.90;;;;;;5065091;28;20177;-82
2021/03/18 07:35:45;;;;;;;21.33;12.47;;;0.00;99.90;;;;;;5083674;28;21003;-83
2021/03/18 07:38:11;;;;;;;20.10;12.27;;;0.10;99.90;;;;;;5065718;28;20442;-82
2021/03/18 07:40:36;;;;;;;17.83;10.90;;;0.20;99.90;;;;;;5065221;28;20532;-82
2021/03/18 07:43:03;;;;;;;21.43;12.33;;;0.30;99.90;;;;;;5067585;28;20177;-82
2021/03/18 07:45:29;;;;;;;19.57;12.90;;;0.30;99.90;;;;;;5085511;28;20689;-83
2021/03/18 07:47:55;;;;;;;19.80;13.17;;;0.40;99.90;;;;;;5067231;28;20418;-82
2021/03/18 07:50:29;;;;;;;25.70;13.80;;;0.40;99.90;;;;;;5067026;28;20177;-83
2021/03/18 07:52:56;;;;;;;23.23;14.30;;;0.40;99.90;;;;;;5084774;28;20395;-83
2021/03/18 07:55:23;;;;;;;24.43;15.00;;;0.40;99.90;;;;;;5066325;28;20522;-83
2021/03/18 07:57:50;;;;;;;19.73;13.23;;;0.30;99.90;;;;;;5064912;28;20410;-83
2021/03/18 08:00:22;;;;;;;25.47;14.67;;;0.20;99.90;;;;;;5063297;28;20412;-83
2021/03/18 08:02:49;;;;;;;23.70;13.40;;;0.10;99.90;;;;;;5062852;28;20443;-83
2021/03/18 08:05:47;;;;;;;21.30;12.93;;;0.10;99.90;;;;;;5062794;28;20522;-83
2021/03/18 08:08:31;;;;;;;20.43;12.70;;;0.00;99.90;;;;;;5018518;28;20433;-83
2021/03/18 08:11:16;;;;;;;20.47;12.50;;;0.00;99.90;;;;;;5062148;28;20789;-83
2021/03/18 08:13:44;;;;;;;17.77;11.90;;;0.00;99.90;;;;;;5062233;28;20419;-83
2021/03/18 08:16:32;;;;;;;18.70;12.80;;;0.00;99.90;;;;;;5061207;28;20445;-83
2021/03/18 08:18:58;;;;;;;19.83;12.23;;;0.00;99.90;;;;;;5060521;28;20411;-84
2021/03/18 08:21:45;;;;;;;20.27;12.33;;;0.10;99.90;;;;;;5060382;28;20482;-84
2021/03/18 08:24:13;;;;;;;19.30;12.43;;;0.10;99.90;;;;;;5078231;28;20780;-84
2021/03/18 08:27:01;;;;;;;18.37;11.23;;;0.10;99.90;;;;;;5061029;28;20435;-84
2021/03/18 08:29:46;;;;;;;17.87;11.90;;;-0.10;99.90;;;;;;5060837;28;20493;-84
2021/03/18 08:32:29;;;;;;;18.97;12.07;;;0.00;99.90;;;;;;5059346;28;21064;-84
2021/03/18 08:34:59;;;;;;;20.40;12.50;;;0.20;99.90;;;;;;5060944;28;20403;-84
2021/03/18 08:37:50;;;;;;;19.30;12.57;;;0.30;99.90;;;;;;5064020;28;20415;-85
2021/03/18 08:40:19;;;;;;;18.53;13.23;;;0.40;99.90;;;;;;5094765;28;20411;-84
2021/03/18 08:42:46;;;;;;;22.80;11.70;;;0.60;99.90;;;;;;5099675;28;20423;-83
2021/03/18 08:45:32;;;;;;;16.30;11.50;;;0.60;99.90;;;;;;5069822;28;20415;-84
2021/03/18 08:48:08;;;;;;;17.10;11.47;;;0.50;99.90;;;;;;5061468;28;20466;-84
2021/03/18 08:50:34;;;;;;;19.57;11.70;;;0.60;99.90;;;;;;5062454;28;20411;-84
2021/03/18 08:53:02;;;;;;;17.70;11.43;;;0.50;99.90;;;;;;5082035;28;20456;-84
2021/03/18 08:55:38;;;;;;;17.70;11.33;;;0.60;99.90;;;;;;5064887;28;20223;-84
2021/03/18 08:58:08;;;;;;;18.50;12.10;;;0.60;99.90;;;;;;5062754;28;20415;-84
2021/03/18 09:00:35;;;;;;;21.77;12.67;;;0.60;99.90;;;;;;5063743;28;20924;-84
2021/03/18 09:03:03;;;;;;;20.63;11.07;;;0.80;99.90;;;;;;5080361;28;20427;-83
2021/03/18 09:05:28;;;;;;;19.03;12.03;;;0.80;99.90;;;;;;5062245;28;20442;-84
2021/03/18 09:07:59;;;;;;;16.97;10.87;;;0.50;99.90;;;;;;5080047;28;20455;-83
2021/03/18 09:10:27;;;;;;;13.37;9.10;;;0.50;99.90;;;;;;5079950;28;20229;-83
2021/03/18 09:13:14;;;;;;;14.07;9.37;;;0.40;99.90;;;;;;5080066;28;20529;-84
2021/03/18 09:15:42;;;;;;;14.00;8.87;;;0.50;99.90;;;;;;5063666;28;20438;-83
2021/03/18 09:18:21;;;;;;;14.77;9.67;;;0.60;99.90;;;;;;5063428;28;20408;-84
2021/03/18 09:21:01;;;;;;;13.87;8.77;;;0.70;99.90;;;;;;5063532;28;20448;-83
2021/03/18 09:23:31;;;;;;;14.53;9.57;;;0.70;99.90;;;;;;5081048;28;20407;-83
2021/03/18 09:26:02;;;;;;;16.17;9.53;;;0.80;99.90;;;;;;5081282;28;20415;-83
2021/03/18 09:28:35;;;;;;;11.97;8.47;;;0.90;99.90;;;;;;5080596;28;20403;-84
2021/03/18 09:31:01;;;;;;;12.67;7.93;;;1.00;99.90;;;;;;5080657;28;20447;-83
2021/03/18 09:33:36;;;;;;;13.70;8.63;;;1.30;99.90;;;;;;5080782;28;20407;-83
2021/03/18 09:36:23;;;;;;;10.53;7.40;;;1.40;99.90;;;;;;5062921;28;20446;-83
2021/03/18 09:39:09;;;;;;;11.30;8.00;;;1.60;99.90;;;;;;5062244;28;20418;-83
2021/03/18 09:41:58;;;;;;;11.57;7.70;;;1.70;99.90;;;;;;5061519;28;20464;-83
2021/03/18 09:44:26;;;;;;;12.83;8.70;;;1.80;99.90;;;;;;5061244;28;20820;-83
2021/03/18 09:46:56;;;;;;;11.77;8.23;;;2.10;99.90;;;;;;5060544;28;20446;-83
2021/03/18 09:49:33;;;;;;;12.07;8.50;;;2.10;99.90;;;;;;5060420;28;20920;-83
2021/03/18 09:52:14;;;;;;;11.33;8.37;;;1.90;99.90;;;;;;5078412;28;20434;-83
2021/03/18 09:54:40;;;;;;;10.43;7.93;;;2.00;99.90;;;;;;5077806;28;20907;-83
2021/03/18 09:57:09;;;;;;;9.00;6.77;;;2.00;99.90;;;;;;5059923;28;20435;-83
2021/03/18 09:59:35;;;;;;;11.77;8.30;;;1.90;99.90;;;;;;5077298;28;20173;-83
2021/03/18 10:02:01;;;;;;;8.57;6.40;;;2.20;99.90;;;;;;5059301;28;20430;-83
2021/03/18 10:04:27;;;;;;;11.77;7.77;;;2.40;99.90;;;;;;5077921;28;20506;-83
2021/03/18 10:06:56;;;;;;;10.97;7.27;;;2.30;99.90;;;;;;5059370;28;20491;-83
2021/03/18 10:09:28;;;;;;;9.97;7.70;;;2.50;99.90;;;;;;5051482;28;20176;-83
2021/03/18 10:11:53;;;;;;;10.30;6.93;;;2.60;99.90;;;;;;5060105;28;20884;-83
2021/03/18 10:14:20;;;;;;;9.07;6.97;;;2.70;99.90;;;;;;5077413;28;20407;-83
2021/03/18 10:16:50;;;;;;;10.30;7.83;;;2.70;99.90;;;;;;5059855;28;20203;-83
2021/03/18 10:19:22;;;;;;;10.20;7.30;;;2.80;99.90;;;;;;5059406;28;20415;-83
2021/03/18 10:21:49;;;;;;;8.87;6.80;;;2.90;99.90;;;;;;5059278;28;20499;-83
2021/03/18 10:24:15;;;;;;;8.87;6.10;;;2.80;99.90;;;;;;5059858;28;20431;-83
2021/03/18 10:26:42;;;;;;;8.33;6.00;;;2.80;99.90;;;;;;5078576;28;20439;-83
2021/03/18 10:29:09;;;;;;;8.70;6.23;;;2.90;99.90;;;;;;5059218;28;20927;-83
2021/03/18 10:31:37;;;;;;;11.67;6.50;;;2.60;99.90;;;;;;5060268;28;20465;-83
2021/03/18 10:34:05;;;;;;;7.43;5.67;;;2.60;99.90;;;;;;5060614;28;20408;-83
2021/03/18 10:36:36;;;;;;;7.77;5.57;;;2.70;99.90;;;;;;5060494;28;20445;-83
2021/03/18 10:39:09;;;;;;;7.33;5.57;;;2.60;99.90;;;;;;5077565;28;20404;-83
2021/03/18 10:41:51;;;;;;;8.83;6.60;;;2.50;99.90;;;;;;5078177;28;20398;-83
2021/03/18 10:44:21;;;;;;;7.03;5.57;;;2.60;99.90;;;;;;5060045;28;20819;-83
2021/03/18 10:46:48;;;;;;;9.30;5.70;;;2.70;99.90;;;;;;5078738;28;20204;-84
2021/03/18 10:49:15;;;;;;;10.90;7.70;;;2.90;99.90;;;;;;5078021;28;20170;-84
2021/03/18 10:51:45;;;;;;;7.93;6.30;;;3.90;99.90;;;;;;5078156;28;20450;-84
2021/03/18 10:54:22;;;;;;;7.83;6.30;;;4.90;99.90;;;;;;5060106;28;20177;-85
2021/03/18 10:56:50;;;;;;;8.83;6.40;;;5.10;99.90;;;;;;5061108;28;20212;-85
2021/03/18 10:59:18;;;;;;;7.63;5.90;;;5.60;99.90;;;;;;5078447;28;20192;-85
2021/03/18 11:01:43;;;;;;;8.37;5.23;;;5.90;99.90;;;;;;5078975;28;20215;-86
2021/03/18 11:04:10;;;;;;;8.63;5.33;;;6.50;99.90;;;;;;5061451;28;20179;-86
2021/03/18 11:06:47;;;;;;;6.10;4.97;;;7.00;99.90;;;;;;5060679;28;20295;-86
2021/03/18 11:09:13;;;;;;;7.77;5.73;;;6.70;99.90;;;;;;5063075;28;20168;-86
2021/03/18 11:11:39;;;;;;;8.27;5.80;;;5.80;99.90;;;;;;5064413;28;20201;-86
2021/03/18 11:14:07;;;;;;;6.77;5.17;;;4.70;99.90;;;;;;5065812;28;20519;-85
2021/03/18 11:16:33;;;;;;;6.30;4.83;;;4.30;99.90;;;;;;5083090;28;20188;-85
2021/03/18 11:19:01;;;;;;;8.37;5.67;;;4.00;99.90;;;;;;5065283;28;20168;-85
2021/03/18 11:21:29;;;;;;;7.43;5.83;;;4.50;99.90;;;;;;5080071;28;20529;-85
2021/03/18 11:24:13;;;;;;;6.67;5.20;;;4.90;99.90;;;;;;5068455;28;20575;-85
2021/03/18 11:27:00;;;;;;;9.97;5.57;;;5.10;99.90;;;;;;5080073;28;20871;-85
2021/03/18 11:29:34;;;;;;;8.87;6.07;;;5.20;99.90;;;;;;5073071;28;20687;-85
2021/03/18 11:32:06;;;;;;;9.27;6.57;;;4.80;99.90;;;;;;5082374;28;20195;-85
2021/03/18 11:34:34;;;;;;;8.83;6.50;;;4.70;99.90;;;;;;5083561;28;20172;-85
2021/03/18 11:37:07;;;;;;;7.23;5.63;;;4.80;99.90;;;;;;5092467;28;20292;-84
2021/03/18 11:39:32;;;;;;;9.03;6.17;;;4.80;99.90;;;;;;5110948;28;20183;-83
2021/03/18 11:41:59;;;;;;;7.93;5.63;;;4.80;99.90;;;;;;5077803;28;20184;-84
2021/03/18 11:44:27;;;;;;;9.33;5.83;;;4.60;99.90;;;;;;5091694;28;20189;-85
2021/03/18 11:46:54;;;;;;;7.43;5.87;;;4.30;99.90;;;;;;5081164;28;20204;-84
2021/03/18 11:49:22;;;;;;;8.90;6.47;;;3.80;99.90;;;;;;5081570;28;20564;-84
2021/03/18 11:51:48;;;;;;;9.83;6.10;;;3.60;99.90;;;;;;5099795;28;20217;-84
2021/03/18 11:54:14;;;;;;;7.77;5.50;;;3.50;99.90;;;;;;5099878;28;20562;-83
2021/03/18 11:56:39;;;;;;;8.63;6.47;;;3.20;99.90;;;;;;5100529;28;20199;-83
2021/03/18 11:59:05;;;;;;;9.03;6.30;;;3.50;99.90;;;;;;5080409;28;20184;-85
2021/03/18 12:01:31;;;;;;;9.63;7.07;;;4.90;99.90;;;;;;5079776;28;20178;-83
2021/03/18 12:03:57;;;;;;;8.87;6.80;;;5.70;99.90;;;;;;5079399;28;20237;-83
2021/03/18 12:06:23;;;;;;;9.53;6.90;;;6.30;99.90;;;;;;5079687;28;20203;-83
2021/03/18 12:08:49;;;;;;;9.23;6.80;;;6.60;99.90;;;;;;5100722;28;20206;-84
2021/03/18 12:11:15;;;;;;;9.03;6.03;;;7.50;99.90;;;;;;5076416;28;20607;-83
2021/03/18 12:13:40;;;;;;;16.93;10.53;;;7.90;99.90;;;;;;5099131;28;20175;-84
2021/03/18 12:16:07;;;;;;;14.93;10.40;;;8.10;99.90;;;;;;5100085;28;20708;-83
2021/03/18 12:18:33;;;;;;;9.00;6.93;;;8.20;99.90;;;;;;5099777;28;20206;-83
2021/03/18 12:20:59;;;;;;;10.17;7.60;;;8.40;99.90;;;;;;5081480;28;20200;-84
2021/03/18 12:23:25;;;;;;;9.10;7.47;;;8.60;98.40;;;;;;5081672;28;20176;-84
2021/03/18 12:25:51;;;;;;;8.23;6.97;;;7.20;99.80;;;;;;5099758;28;20661;-84
2021/03/18 12:28:17;;;;;;;9.23;6.87;;;5.60;99.90;;;;;;5081317;28;20656;-84
2021/03/18 12:30:46;;;;;;;8.40;7.00;;;5.10;99.90;;;;;;5099697;28;20192;-84
2021/03/18 12:33:12;;;;;;;8.43;7.50;;;4.90;99.90;;;;;;5081123;28;20184;-84
2021/03/18 12:35:39;;;;;;;7.97;6.83;;;4.50;99.90;;;;;;5081005;28;20196;-84
2021/03/18 12:38:05;;;;;;;7.93;6.30;;;4.70;99.90;;;;;;5099390;28;20168;-84
2021/03/18 12:40:31;;;;;;;9.70;6.27;;;6.30;99.90;;;;;;5081468;28;20176;-83
2021/03/18 12:42:57;;;;;;;8.73;6.57;;;7.80;97.40;;;;;;5100330;28;20207;-85
2021/03/18 12:45:23;;;;;;;13.07;6.77;;;9.10;98.50;;;;;;5080760;28;20208;-84
2021/03/18 12:47:49;;;;;;;7.97;5.90;;;10.40;98.10;;;;;;5080875;28;20172;-83
2021/03/18 12:50:18;;;;;;;8.73;6.77;;;10.80;91.70;;;;;;5099932;28;20190;-84
2021/03/18 12:52:45;;;;;;;8.10;6.83;;;10.60;89.00;;;;;;5081324;28;20211;-84